Time;durP1;ratioP1;P1;durP2;ratioP2;P2;SDS_P1;SDS_P2;PMS_P1;PMS_P2;Temp;Humidity;BMP_temperature;BMP_pressure;BME280_temperature;BME280_humidity;BME280_pressure;Samples;Min_cycle;Max_cycle;Signal;HPM_P1;HPM_P2
2023/04/16 00:00:23;;;;;;;31.75;17.17;;;;;;;6.77;100.00;100798.58;1683566;85;21123;-56
2023/04/16 00:02:52;;;;;;;27.77;16.62;;;;;;;6.80;100.00;100800.12;1685549;85;21166;-60
2023/04/16 00:05:45;;;;;;;25.85;16.37;;;;;;;6.81;100.00;100799.95;1685947;84;21115;-57
2023/04/16 00:08:15;;;;;;;24.70;16.07;;;;;;;6.82;100.00;100805.75;1683746;84;21550;-58
2023/04/16 00:10:45;;;;;;;22.60;14.85;;;;;;;6.81;100.00;100805.91;1680160;84;21178;-57
2023/04/16 00:13:24;;;;;;;;;;;;;;;;;;;;;
2023/04/16 00:16:07;;;;;;;26.10;16.67;;;;;;;6.83;100.00;100807.96;1720768;83;21130;-57
2023/04/16 00:18:39;;;;;;;24.37;14.70;;;;;;;6.86;100.00;100807.63;1721040;83;21138;-57
2023/04/16 00:21:14;;;;;;;27.13;16.23;;;;;;;6.87;100.00;100808.83;1720883;83;21831;-58
2023/04/16 00:23:45;;;;;;;24.23;16.10;;;;;;;6.90;100.00;100800.84;1721119;83;21174;-56
2023/04/16 00:26:20;;;;;;;27.20;16.90;;;;;;;6.90;100.00;100804.42;1714644;83;21565;-56
2023/04/16 00:29:08;;;;;;;24.82;16.20;;;;;;;6.90;100.00;100804.92;1717685;83;21177;-58
2023/04/16 00:31:39;;;;;;;27.10;16.12;;;;;;;6.91;100.00;100807.99;1721111;83;21134;-57
2023/04/16 00:34:15;;;;;;;25.57;16.07;;;;;;;6.90;100.00;100811.23;1721167;83;21230;-57
2023/04/16 00:36:44;;;;;;;24.12;15.30;;;;;;;6.90;100.00;100807.14;1720816;83;21134;-58
2023/04/16 00:39:33;;;;;;;25.85;17.00;;;;;;;6.91;100.00;100810.21;1720666;82;21138;-57
2023/04/16 00:42:23;;;;;;;25.50;16.73;;;;;;;6.93;100.00;100816.34;1721153;83;21166;-57
2023/04/16 00:44:58;;;;;;;25.27;16.50;;;;;;;6.95;100.00;100811.59;1638083;87;21607;-56
2023/04/16 00:47:27;;;;;;;26.12;17.27;;;;;;;6.97;100.00;100810.91;1614956;88;21231;-57
2023/04/16 00:49:59;;;;;;;25.48;16.12;;;;;;;6.99;100.00;100813.47;1614202;88;21313;-58
2023/04/16 00:52:30;;;;;;;26.33;16.17;;;;;;;6.99;100.00;100812.11;1615233;88;21181;-56
2023/04/16 00:55:30;;;;;;;27.55;16.85;;;;;;;7.00;100.00;100808.37;1613567;88;21643;-57
2023/04/16 00:57:59;;;;;;;25.15;15.75;;;;;;;6.97;100.00;100810.91;1593782;88;21170;-57
2023/04/16 01:00:49;;;;;;;26.93;16.55;;;;;;;6.97;100.00;100813.64;1613884;88;21134;-58
2023/04/16 01:03:23;;;;;;;28.90;17.50;;;;;;;6.98;100.00;100814.49;1643223;85;21143;-58
2023/04/16 01:05:53;;;;;;;27.42;17.48;;;;;;;6.99;100.00;100811.60;1688713;85;21209;-56
2023/04/16 01:08:22;;;;;;;24.20;16.48;;;;;;;7.02;100.00;100810.93;1688629;85;21198;-57
2023/04/16 01:10:52;;;;;;;26.10;16.45;;;;;;;7.03;100.00;100809.41;1688888;85;21183;-58
2023/04/16 01:13:22;;;;;;;25.27;15.95;;;;;;;7.02;100.00;100809.06;1672822;85;21143;-57
2023/04/16 01:15:57;;;;;;;26.50;16.60;;;;;;;7.02;100.00;100814.51;1703186;84;21183;-57
2023/04/16 01:18:26;;;;;;;27.30;17.77;;;;;;;7.00;100.00;100813.82;1703461;84;21139;-58
2023/04/16 01:20:57;;;;;;;25.02;16.17;;;;;;;7.02;100.00;100812.30;1701102;84;21642;-56
2023/04/16 01:23:31;;;;;;;27.40;16.87;;;;;;;7.03;100.00;100816.72;1703111;84;21612;-57
2023/04/16 01:26:00;;;;;;;24.70;15.72;;;;;;;7.03;100.00;100813.48;1703139;84;21178;-57
2023/04/16 01:28:30;;;;;;;24.85;16.60;;;;;;;7.04;100.00;100819.28;1703280;84;21129;-57
2023/04/16 01:31:03;;;;;;;25.43;16.82;;;;;;;7.06;100.00;100818.61;1700389;84;21191;-58
2023/04/16 01:33:43;;;;;;;24.60;15.55;;;;;;;7.08;100.00;100819.30;1702695;84;21175;-57
2023/04/16 01:36:12;;;;;;;24.27;16.45;;;;;;;7.08;100.00;100819.30;1703114;84;21206;-57
2023/04/16 01:38:46;;;;;;;28.20;16.45;;;;;;;7.08;100.00;100824.75;1703185;83;21255;-58
2023/04/16 01:41:15;;;;;;;23.40;15.83;;;;;;;7.10;100.00;100817.77;1703372;83;21621;-58
2023/04/16 01:44:04;;;;;;;26.95;16.37;;;;;;;7.10;100.00;100823.22;1682422;84;21583;-57
2023/04/16 01:46:34;;;;;;;27.02;16.52;;;;;;;7.08;100.00;100820.66;1703104;84;21611;-57
2023/04/16 01:49:22;;;;;;;27.73;17.05;;;;;;;7.05;100.00;100825.08;1700361;84;21147;-57
2023/04/16 01:51:55;;;;;;;28.15;17.62;;;;;;;7.05;100.00;100821.50;1703390;84;21135;-56
2023/04/16 01:54:55;;;;;;;29.75;16.82;;;;;;;7.07;100.00;100833.94;1696686;84;21151;-57
2023/04/16 01:57:45;;;;;;;25.17;16.32;;;;;;;7.07;100.00;100824.41;1700705;84;21622;-57
2023/04/16 02:00:20;;;;;;;27.55;16.65;;;;;;;7.09;100.00;100825.09;1700836;84;21147;-57
2023/04/16 02:02:55;;;;;;;25.50;16.70;;;;;;;7.12;100.00;100825.27;1699354;84;21143;-57
2023/04/16 02:05:31;;;;;;;27.00;16.15;;;;;;;7.12;100.00;100826.13;1701408;84;21670;-57
2023/04/16 02:08:01;;;;;;;23.83;14.15;;;;;;;7.08;100.00;100820.66;1703167;84;21124;-57
2023/04/16 02:10:49;;;;;;;23.52;15.43;;;;;;;7.08;100.00;100830.70;1697104;84;21175;-57
2023/04/16 02:13:25;;;;;;;29.07;15.68;;;;;;;7.07;100.00;100827.64;1701676;83;21131;-57
2023/04/16 02:15:53;;;;;;;23.02;15.78;;;;;;;7.06;100.00;100832.23;1700736;84;21136;-57
2023/04/16 02:18:33;;;;;;;28.70;16.07;;;;;;;7.08;100.00;100832.06;1699786;84;21164;-57
2023/04/16 02:21:05;;;;;;;25.43;15.68;;;;;;;7.08;100.00;100833.43;1700785;84;21128;-57
2023/04/16 02:23:39;;;;;;;26.65;15.45;;;;;;;7.08;100.00;100835.64;1701089;84;21159;-58
2023/04/16 02:26:12;;;;;;;22.95;14.73;;;;;;;7.08;100.00;100844.33;1700778;83;21589;-57
2023/04/16 02:28:44;;;;;;;23.27;15.93;;;;;;;7.10;100.00;100834.97;1680880;84;21135;-57
2023/04/16 02:31:16;;;;;;;27.05;16.00;;;;;;;7.11;100.00;100843.49;1700773;84;21195;-57
2023/04/16 02:34:04;;;;;;;27.22;15.15;;;;;;;7.11;100.00;100844.85;1700791;83;21113;-57
2023/04/16 02:36:42;;;;;;;27.82;15.50;;;;;;;7.14;100.00;100843.16;1700789;84;21143;-57
2023/04/16 02:39:06;;;;;;;23.73;14.85;;;;;;;7.13;100.00;100844.18;1699824;84;21163;-57
2023/04/16 02:41:45;;;;;;;22.93;14.53;;;;;;;7.17;100.00;100840.14;1695967;84;21171;-58
2023/04/16 02:44:09;;;;;;;27.52;15.32;;;;;;;7.18;100.00;100832.31;1699538;84;21191;-56
2023/04/16 02:46:38;;;;;;;20.82;13.32;;;;;;;7.16;100.00;100840.30;1701020;84;21203;-57
2023/04/16 02:49:13;;;;;;;22.93;14.85;;;;;;;7.12;100.00;100841.63;1700943;84;21171;-57
2023/04/16 02:51:53;;;;;;;25.77;14.40;;;;;;;7.10;100.00;100845.88;1702660;84;21610;-57
2023/04/16 02:54:23;;;;;;;21.97;14.30;;;;;;;7.11;100.00;100847.58;1702701;84;21179;-57
2023/04/16 02:56:57;;;;;;;23.67;14.90;;;;;;;7.13;100.00;100846.91;1703203;84;21171;-57
2023/04/16 02:59:26;;;;;;;24.37;14.63;;;;;;;7.13;100.00;100852.36;1703455;84;21133;-58
2023/04/16 03:01:59;;;;;;;25.12;14.85;;;;;;;7.15;100.00;100856.28;1701061;84;21211;-57
2023/04/16 03:04:29;;;;;;;24.80;13.95;;;;;;;7.16;100.00;100860.23;1696969;84;21108;-57
2023/04/16 03:07:00;;;;;;;28.07;14.73;;;;;;;7.16;100.00;100859.38;1701016;84;21235;-56
2023/04/16 03:09:30;;;;;;;21.75;13.08;;;;;;;7.16;100.00;100862.11;1701023;84;21182;-58
2023/04/16 03:12:04;;;;;;;22.37;14.40;;;;;;;7.16;100.00;100860.23;1700985;84;21135;-57
2023/04/16 03:14:33;;;;;;;22.00;13.93;;;;;;;7.13;100.00;100865.98;1719240;83;21150;-58
2023/04/16 03:17:02;;;;;;;26.62;15.10;;;;;;;7.12;100.00;100868.36;1681626;84;21617;-56
2023/04/16 03:19:31;;;;;;;22.65;14.03;;;;;;;7.11;100.00;100877.55;1681271;85;21191;-56
2023/04/16 03:22:25;;;;;;;22.95;14.40;;;;;;;7.12;100.00;100872.45;1678339;84;21128;-58
2023/04/16 03:24:55;;;;;;;22.05;14.65;;;;;;;7.11;100.00;100878.06;1716500;83;21166;-58
2023/04/16 03:27:24;;;;;;;23.32;14.07;;;;;;;7.12;100.00;100883.86;1682217;85;21159;-56
2023/04/16 03:29:56;;;;;;;21.87;14.35;;;;;;;7.13;100.00;100890.50;1692079;84;21210;-57
2023/04/16 03:32:47;;;;;;;24.47;13.85;;;;;;;7.16;100.00;100887.48;1682020;85;21155;-57
2023/04/16 03:35:16;;;;;;;22.22;13.05;;;;;;;7.19;100.00;100892.61;1714171;84;21636;-57
2023/04/16 03:37:49;;;;;;;20.92;12.35;;;;;;;7.19;100.00;100891.24;1680222;84;21179;-57
2023/04/16 03:40:21;;;;;;;19.25;12.35;;;;;;;7.20;100.00;100886.65;1714350;84;21659;-56
2023/04/16 03:42:51;;;;;;;19.65;12.43;;;;;;;7.17;100.00;100893.28;1682242;85;21127;-58
2023/04/16 03:45:50;;;;;;;21.02;12.10;;;;;;;7.19;100.00;100901.30;1680419;85;21167;-58
2023/04/16 03:48:25;;;;;;;19.60;13.30;;;;;;;7.20;100.00;100898.41;1682536;84;21495;-58
2023/04/16 03:50:54;;;;;;;19.85;12.03;;;;;;;7.17;100.00;100896.52;1714512;83;21182;-57
2023/04/16 03:53:24;;;;;;;20.72;12.95;;;;;;;7.17;100.00;100892.42;1682269;83;21581;-57
2023/04/16 03:55:54;;;;;;;19.77;12.45;;;;;;;7.18;100.00;100900.95;1714324;84;21170;-57
2023/04/16 03:58:23;;;;;;;20.35;12.23;;;;;;;7.20;100.00;100899.77;1714563;84;21175;-58
2023/04/16 04:00:54;;;;;;;20.00;12.73;;;;;;;7.20;100.00;100898.41;1682290;83;21171;-57
2023/04/16 04:03:24;;;;;;;18.82;12.18;;;;;;;7.21;100.00;100900.11;1682349;85;21131;-57
2023/04/16 04:05:55;;;;;;;23.05;12.68;;;;;;;7.24;100.00;100905.23;1714482;83;21208;-57
2023/04/16 04:08:26;;;;;;;19.50;11.35;;;;;;;7.23;100.00;100906.25;1714437;84;21285;-57
2023/04/16 04:10:55;;;;;;;20.77;12.20;;;;;;;7.24;100.00;100912.05;1682274;83;21182;-56
2023/04/16 04:13:26;;;;;;;18.73;11.20;;;;;;;7.23;100.00;100899.95;1716485;83;21131;-57
2023/04/16 04:15:54;;;;;;;18.23;10.85;;;;;;;7.24;100.00;100907.95;1720912;83;21135;-57
2023/04/16 04:18:25;;;;;;;17.80;11.12;;;;;;;7.27;100.00;100904.05;1721120;83;21173;-58
2023/04/16 04:20:54;;;;;;;20.55;11.20;;;;;;;7.28;100.00;100897.59;1721137;83;21150;-58
2023/04/16 04:23:26;;;;;;;15.88;10.00;;;;;;;7.28;100.00;100897.59;1721214;83;21750;-57
2023/04/16 04:25:55;;;;;;;20.27;10.82;;;;;;;7.23;100.00;100906.25;1720973;83;21174;-58
2023/04/16 04:28:25;;;;;;;17.20;9.55;;;;;;;7.23;100.00;100910.34;1720947;83;21129;-57
2023/04/16 04:30:54;;;;;;;16.50;10.15;;;;;;;7.26;100.00;100900.98;1720873;83;21190;-58
2023/04/16 04:33:28;;;;;;;19.17;10.98;;;;;;;7.27;100.00;100910.36;1720906;83;21581;-59
2023/04/16 04:35:57;;;;;;;19.02;10.20;;;;;;;7.26;100.00;100910.02;1720977;83;21262;-56
2023/04/16 04:38:27;;;;;;;16.37;10.15;;;;;;;7.26;100.00;100914.10;1721242;83;21110;-58
2023/04/16 04:40:56;;;;;;;18.27;10.25;;;;;;;7.26;100.00;100912.73;1720950;83;21562;-56
2023/04/16 04:43:27;;;;;;;15.35;9.35;;;;;;;7.28;100.00;100913.43;1721194;83;21530;-56
2023/04/16 04:45:56;;;;;;;15.60;9.08;;;;;;;7.29;100.00;100911.05;1721050;83;21130;-56
2023/04/16 04:48:27;;;;;;;13.43;8.78;;;;;;;7.29;100.00;100917.86;1721054;83;21209;-57
2023/04/16 04:50:58;;;;;;;13.80;8.95;;;;;;;7.27;100.00;100908.14;1720897;83;21639;-58
2023/04/16 04:53:27;;;;;;;14.20;9.88;;;;;;;7.28;100.00;100912.06;1721155;83;21162;-56
2023/04/16 04:55:57;;;;;;;13.75;8.50;;;;;;;7.33;100.00;100921.11;1720944;83;21146;-57
2023/04/16 04:58:29;;;;;;;16.27;9.10;;;;;;;7.36;100.00;100915.84;1719107;83;21640;-57
2023/04/16 05:00:58;;;;;;;17.23;9.68;;;;;;;7.37;100.00;100923.00;1720889;83;21387;-56
2023/04/16 05:03:27;;;;;;;14.63;9.70;;;;;;;7.38;100.00;100924.20;1721158;83;21189;-57
2023/04/16 05:05:56;;;;;;;13.68;8.90;;;;;;;7.39;100.00;100922.33;1721222;83;21107;-58
2023/04/16 05:08:25;;;;;;;15.68;9.48;;;;;;;7.41;100.00;100930.69;1721185;83;21129;-57
2023/04/16 05:10:56;;;;;;;15.18;9.33;;;;;;;7.43;100.00;100923.20;1721107;83;21573;-57
2023/04/16 05:13:25;;;;;;;16.45;8.80;;;;;;;7.43;100.00;100930.52;1720855;83;21154;-58
2023/04/16 05:15:53;;;;;;;15.70;9.60;;;;;;;7.46;100.00;100926.95;1721046;83;21134;-57
2023/04/16 05:18:24;;;;;;;15.83;9.63;;;;;;;7.47;100.00;100931.90;1720884;83;21655;-57
2023/04/16 05:20:52;;;;;;;18.07;10.38;;;;;;;7.47;100.00;100931.90;1706481;83;21208;-57
2023/04/16 05:23:23;;;;;;;14.47;9.00;;;;;;;7.47;100.00;100934.12;1719133;83;21134;-58
2023/04/16 05:25:52;;;;;;;16.75;9.75;;;;;;;7.49;100.00;100944.86;1719097;83;21186;-57
2023/04/16 05:28:21;;;;;;;14.35;9.38;;;;;;;7.50;100.00;100943.84;1720729;83;21167;-58
2023/04/16 05:30:50;;;;;;;18.15;9.43;;;;;;;7.48;100.00;100941.28;1720833;83;21197;-57
2023/04/16 05:33:20;;;;;;;15.80;9.73;;;;;;;7.51;100.00;100942.82;1720982;83;21173;-58
2023/04/16 05:35:49;;;;;;;13.90;9.58;;;;;;;7.50;100.00;100934.30;1720937;83;21246;-56
2023/04/16 05:38:20;;;;;;;15.03;9.30;;;;;;;7.50;100.00;100937.88;1721016;83;21134;-57
2023/04/16 05:40:49;;;;;;;15.50;10.05;;;;;;;7.49;100.00;100942.98;1721094;83;21190;-59
2023/04/16 05:43:19;;;;;;;17.67;9.73;;;;;;;7.49;100.00;100938.05;1721148;83;21554;-57
2023/04/16 05:45:48;;;;;;;16.77;9.78;;;;;;;7.50;100.00;100943.33;1721170;83;21174;-57
2023/04/16 05:48:19;;;;;;;17.87;10.10;;;;;;;7.49;100.00;100940.27;1721203;83;21163;-57
2023/04/16 05:50:49;;;;;;;16.62;10.40;;;;;;;7.55;100.00;100950.51;1721096;83;21417;-58
2023/04/16 05:53:18;;;;;;;19.77;10.70;;;;;;;7.56;100.00;100944.55;1720874;83;21166;-60
2023/04/16 05:55:47;;;;;;;21.05;10.53;;;;;;;7.58;100.00;100951.54;1720923;83;21190;-58
2023/04/16 05:58:18;;;;;;;16.97;10.48;;;;;;;7.57;100.00;100950.34;1720929;83;21620;-57
2023/04/16 06:00:47;;;;;;;18.52;10.20;;;;;;;7.57;100.00;100953.08;1721010;83;21199;-58
2023/04/16 06:03:16;;;;;;;15.40;10.15;;;;;;;7.60;100.00;100951.38;1720932;83;21135;-56
2023/04/16 06:05:46;;;;;;;17.77;10.50;;;;;;;7.64;100.00;100956.84;1721200;83;21313;-57
2023/04/16 06:08:15;;;;;;;18.90;10.15;;;;;;;7.64;100.00;100949.52;1720917;83;21174;-58
2023/04/16 06:10:46;;;;;;;20.20;10.50;;;;;;;7.66;100.00;100958.05;1721188;83;21609;-57
2023/04/16 06:13:15;;;;;;;16.40;9.68;;;;;;;7.65;100.00;100970.83;1720857;83;21570;-57
2023/04/16 06:15:44;;;;;;;16.80;9.63;;;;;;;7.68;100.00;100965.55;1720906;83;21221;-56
2023/04/16 06:18:13;;;;;;;17.52;10.38;;;;;;;7.72;100.00;100962.33;1708536;83;21234;-56
2023/04/16 06:20:42;;;;;;;18.45;9.93;;;;;;;7.72;100.00;100978.69;1721148;83;21150;-57
2023/04/16 06:23:12;;;;;;;16.90;10.00;;;;;;;7.73;100.00;100971.36;1720955;83;21158;-56
2023/04/16 06:25:42;;;;;;;17.77;9.53;;;;;;;7.73;100.00;100984.49;1721305;83;21240;-57
2023/04/16 06:28:11;;;;;;;22.25;13.00;;;;;;;7.73;100.00;100972.22;1721328;83;21162;-57
2023/04/16 06:30:41;;;;;;;19.45;10.65;;;;;;;7.75;100.00;100980.23;1722322;83;21138;-57
2023/04/16 06:33:13;;;;;;;17.73;9.53;;;;;;;7.77;100.00;100975.47;1723114;83;21184;-56
2023/04/16 06:35:42;;;;;;;15.10;9.20;;;;;;;7.79;100.00;100978.38;1723180;83;21206;-57
2023/04/16 06:38:12;;;;;;;16.80;9.80;;;;;;;7.80;100.00;100983.33;1721841;83;21162;-57
2023/04/16 06:40:41;;;;;;;14.73;9.33;;;;;;;7.80;100.00;100984.21;1721110;83;21309;-58
2023/04/16 06:43:11;;;;;;;17.00;9.25;;;;;;;7.80;100.00;100992.39;1721383;83;21162;-57
2023/04/16 06:45:40;;;;;;;16.50;8.90;;;;;;;7.82;100.00;100984.90;1720858;83;21234;-57
2023/04/16 06:48:09;;;;;;;16.07;9.05;;;;;;;7.83;100.00;100994.79;1720937;83;21174;-57
2023/04/16 06:50:38;;;;;;;17.15;9.80;;;;;;;7.85;100.00;100991.90;1721100;83;21624;-57
2023/04/16 06:53:08;;;;;;;18.57;8.93;;;;;;;7.88;100.00;100998.39;1721137;83;21161;-57
2023/04/16 06:55:37;;;;;;;18.42;9.88;;;;;;;7.88;100.00;100995.15;1720955;83;21166;-57
2023/04/16 06:58:06;;;;;;;14.55;8.35;;;;;;;7.91;100.00;100990.72;1721040;83;21138;-58
2023/04/16 07:00:35;;;;;;;17.70;8.83;;;;;;;7.90;100.00;100999.93;1720987;83;21178;-57
2023/04/16 07:03:04;;;;;;;19.50;9.10;;;;;;;7.90;100.00;101004.02;1720880;83;21162;-58
2023/04/16 07:05:35;;;;;;;15.10;8.18;;;;;;;7.91;100.00;101003.00;1720751;83;21661;-58
2023/04/16 07:08:04;;;;;;;17.20;9.40;;;;;;;7.93;100.00;101004.20;1720994;83;21608;-57
2023/04/16 07:10:32;;;;;;;19.17;9.48;;;;;;;7.93;100.00;101001.47;1687288;85;21099;-57
2023/04/16 07:13:01;;;;;;;16.25;9.23;;;;;;;7.93;100.00;101015.12;1707382;84;21624;-56
2023/04/16 07:15:30;;;;;;;15.68;8.65;;;;;;;7.95;100.00;101017.17;1676270;84;21136;-56
2023/04/16 07:17:59;;;;;;;16.80;9.70;;;;;;;7.96;100.00;101010.69;1716896;83;21177;-57
2023/04/16 07:20:28;;;;;;;16.48;9.35;;;;;;;7.97;100.00;101004.72;1721148;83;21146;-56
2023/04/16 07:22:59;;;;;;;14.95;9.05;;;;;;;8.01;100.00;101016.50;1720816;83;21126;-57
2023/04/16 07:25:28;;;;;;;15.88;9.58;;;;;;;8.03;100.00;101014.98;1721115;83;21166;-57
2023/04/16 07:27:56;;;;;;;16.62;9.30;;;;;;;8.04;100.00;101015.31;1720984;83;21119;-58
2023/04/16 07:30:32;;;;;;;17.32;10.10;;;;;;;8.00;100.00;101014.80;1721071;83;21127;-57
2023/04/16 07:32:58;;;;;;;18.98;10.28;;;;;;;8.00;100.00;101010.70;1720932;83;21575;-58
2023/04/16 07:35:27;;;;;;;19.42;9.58;;;;;;;8.04;100.00;101012.08;1720944;83;21189;-57
2023/04/16 07:37:55;;;;;;;19.95;10.85;;;;;;;8.07;100.00;101014.48;1720673;83;21139;-56
2023/04/16 07:40:24;;;;;;;19.30;9.98;;;;;;;8.13;100.00;101018.41;1721247;83;21130;-57
2023/04/16 07:42:54;;;;;;;20.00;10.98;;;;;;;8.12;100.00;101018.92;1721076;83;21678;-57
2023/04/16 07:45:23;;;;;;;21.65;9.90;;;;;;;8.11;100.00;101017.72;1720964;83;21162;-56
2023/04/16 07:47:51;;;;;;;22.35;10.32;;;;;;;8.13;100.00;101009.72;1721012;83;21146;-57
2023/04/16 07:50:20;;;;;;;23.15;10.98;;;;;;;8.15;100.00;101017.73;1721073;83;21616;-59
2023/04/16 07:52:49;;;;;;;23.42;11.65;;;;;;;8.16;100.00;101016.20;1720979;83;21218;-58
2023/04/16 07:55:17;;;;;;;20.43;11.03;;;;;;;8.17;100.00;101014.33;1720941;83;21213;-58
2023/04/16 07:57:46;;;;;;;20.30;11.38;;;;;;;8.18;100.00;101013.30;1721079;83;21138;-57
2023/04/16 08:00:16;;;;;;;22.30;10.48;;;;;;;8.19;100.00;101017.75;1721233;83;21134;-57
2023/04/16 08:02:45;;;;;;;21.15;11.15;;;;;;;8.22;100.00;101019.63;1720934;83;21102;-57
2023/04/16 08:05:14;;;;;;;19.90;10.53;;;;;;;8.20;100.00;101016.21;1721415;83;21538;-57
2023/04/16 08:07:45;;;;;;;22.60;10.68;;;;;;;8.20;100.00;101020.30;1720956;83;21604;-57
2023/04/16 08:10:14;;;;;;;22.73;11.28;;;;;;;8.21;100.00;101022.53;1721267;83;21130;-57
2023/04/16 08:12:45;;;;;;;21.00;11.53;;;;;;;8.22;100.00;101023.72;1720907;82;21534;-56
2023/04/16 08:15:14;;;;;;;21.37;11.53;;;;;;;8.25;100.00;101017.08;1708723;83;21182;-57
2023/04/16 08:17:43;;;;;;;21.52;11.35;;;;;;;8.26;100.00;101021.00;1700857;84;21172;-58
2023/04/16 08:20:11;;;;;;;26.20;11.63;;;;;;;8.25;100.00;101017.92;1699198;84;21186;-58
2023/04/16 08:22:42;;;;;;;23.07;11.70;;;;;;;8.27;100.00;101023.22;1700484;84;21633;-56
2023/04/16 08:25:14;;;;;;;22.82;11.43;;;;;;;8.27;100.00;101012.30;1700778;84;21497;-57
2023/04/16 08:27:43;;;;;;;22.77;11.30;;;;;;;8.28;100.00;101015.38;1701027;84;21571;-57
2023/04/16 08:30:15;;;;;;;22.82;10.95;;;;;;;8.31;100.00;101013.67;1700828;84;21131;-59
2023/04/16 08:32:45;;;;;;;21.82;10.82;;;;;;;8.30;100.00;101013.84;1700754;84;21179;-58
2023/04/16 08:35:16;;;;;;;24.07;11.20;;;;;;;8.29;100.00;101014.35;1700701;84;21660;-56
2023/04/16 08:37:45;;;;;;;25.15;10.95;;;;;;;8.27;100.00;101011.79;1683746;83;21168;-58
2023/04/16 08:40:13;;;;;;;25.92;11.65;;;;;;;8.25;100.00;101015.70;1694471;84;21131;-58
2023/04/16 08:42:57;;;;;;;24.98;11.75;;;;;;;8.29;100.00;101012.98;1680995;85;21195;-56
2023/04/16 08:45:26;;;;;;;23.38;12.58;;;;;;;8.29;100.00;101017.08;1690214;84;21655;-57
2023/04/16 08:47:55;;;;;;;26.57;12.37;;;;;;;8.31;100.00;101016.91;1700730;84;21143;-55
2023/04/16 08:50:24;;;;;;;24.67;11.68;;;;;;;8.31;100.00;101023.23;1700968;84;21166;-57
2023/04/16 08:52:59;;;;;;;23.87;11.15;;;;;;;8.33;100.00;101024.42;1700953;84;21170;-57
2023/04/16 08:55:39;;;;;;;22.90;11.15;;;;;;;8.35;100.00;101023.78;1654891;86;21251;-56
2023/04/16 08:58:20;;;;;;;22.73;11.30;;;;;;;8.37;100.00;101023.09;1654757;86;21633;-57
2023/04/16 09:00:49;;;;;;;24.90;12.07;;;;;;;8.36;100.00;101024.13;1654442;85;21601;-56
2023/04/16 09:03:20;;;;;;;21.57;11.30;;;;;;;8.35;100.00;101020.54;1654729;86;21594;-56
2023/04/16 09:05:49;;;;;;;22.30;11.10;;;;;;;8.39;100.00;101021.05;1654787;87;21243;-57
2023/04/16 09:08:19;;;;;;;22.45;11.83;;;;;;;8.38;100.00;101016.62;1654845;85;21206;-57
2023/04/16 09:10:47;;;;;;;21.75;11.28;;;;;;;8.37;100.00;101017.64;1653829;87;22088;-57
2023/04/16 09:13:19;;;;;;;26.10;12.03;;;;;;;8.35;100.00;101015.08;1682359;85;21117;-56
2023/04/16 09:15:49;;;;;;;27.15;12.90;;;;;;;8.38;100.00;101016.62;1682490;85;21144;-56
2023/04/16 09:18:22;;;;;;;24.65;11.33;;;;;;;8.40;100.00;101017.30;1714249;82;21619;-54
2023/04/16 09:20:50;;;;;;;26.37;12.10;;;;;;;8.40;100.00;101019.52;1708808;84;21126;-57
2023/04/16 09:23:20;;;;;;;29.27;13.50;;;;;;;8.41;100.00;101018.50;1708885;83;21625;-59
2023/04/16 09:25:48;;;;;;;28.57;13.03;;;;;;;8.41;100.00;101022.59;1708858;83;21404;-56
2023/04/16 09:28:45;;;;;;;28.38;13.58;;;;;;;8.41;100.00;101022.59;1708838;83;21768;-57
2023/04/16 09:31:15;;;;;;;28.95;13.68;;;;;;;8.43;100.00;101021.91;1708743;83;21557;-58
2023/04/16 09:34:02;;;;;;;27.13;12.60;;;;;;;8.51;100.00;101023.83;1708679;84;21138;-57
2023/04/16 09:36:32;;;;;;;30.20;15.40;;;;;;;8.54;100.00;101027.08;1709304;83;21181;-58
2023/04/16 09:39:02;;;;;;;37.45;18.40;;;;;;;8.55;100.00;101031.52;1708743;83;21209;-57
2023/04/16 09:41:38;;;;;;;31.40;15.95;;;;;;;8.56;100.00;101037.33;1708777;83;21817;-57
2023/04/16 09:44:07;;;;;;;26.10;14.70;;;;;;;8.56;100.00;101038.69;1708714;84;21583;-57
2023/04/16 09:46:41;;;;;;;30.62;14.98;;;;;;;8.52;100.00;101045.52;1687114;84;21143;-58
2023/04/16 09:49:15;;;;;;;29.50;15.18;;;;;;;8.52;100.00;101044.15;1723732;83;21169;-56
2023/04/16 09:51:48;;;;;;;31.93;14.58;;;;;;;8.50;100.00;101044.83;1717042;83;21154;-56
2023/04/16 09:54:18;;;;;;;29.75;14.13;;;;;;;8.50;100.00;101048.92;1714257;84;21103;-57
2023/04/16 09:56:48;;;;;;;31.00;14.13;;;;;;;8.54;100.00;101052.17;1693846;84;21198;-56
2023/04/16 09:59:17;;;;;;;31.40;14.47;;;;;;;8.52;100.00;101050.98;1717881;84;21127;-57
2023/04/16 10:01:55;;;;;;;31.30;15.05;;;;;;;8.50;100.00;101059.00;1718098;84;21122;-57
2023/04/16 10:04:23;;;;;;;28.73;14.65;;;;;;;8.51;100.00;101060.19;1714871;84;21136;-56
2023/04/16 10:07:04;;;;;;;32.38;15.75;;;;;;;8.57;100.00;101057.30;1714337;83;21765;-56
2023/04/16 10:09:38;;;;;;;31.17;14.63;;;;;;;8.57;100.00;101058.16;1714339;84;21535;-57
2023/04/16 10:12:07;;;;;;;31.07;15.13;;;;;;;8.60;100.00;101063.80;1714341;83;21170;-58
2023/04/16 10:14:35;;;;;;;31.87;15.00;;;;;;;8.64;100.00;101062.43;1713661;83;21197;-58
2023/04/16 10:17:05;;;;;;;29.05;15.43;;;;;;;8.71;100.00;101063.97;1701477;83;21179;-57
2023/04/16 10:19:35;;;;;;;33.45;16.25;;;;;;;8.73;100.00;101062.78;1697763;84;21160;-56
2023/04/16 10:22:04;;;;;;;29.07;14.87;;;;;;;8.78;100.00;101071.83;1705275;83;21550;-56
2023/04/16 10:24:34;;;;;;;28.75;15.00;;;;;;;8.75;100.00;101065.34;1718154;83;21182;-58
2023/04/16 10:27:03;;;;;;;32.23;15.63;;;;;;;8.72;100.00;101072.00;1718370;83;21186;-58
2023/04/16 10:29:32;;;;;;;34.18;14.93;;;;;;;8.72;100.00;101077.97;1718323;83;21210;-57
2023/04/16 10:32:00;;;;;;;30.80;15.68;;;;;;;8.69;100.00;101067.38;1718695;83;21547;-57
2023/04/16 10:34:30;;;;;;;34.08;18.37;;;;;;;8.67;100.00;101070.80;1718661;83;21648;-56
2023/04/16 10:36:58;;;;;;;34.92;15.53;;;;;;;8.66;100.00;101067.21;1673365;83;21690;-56
2023/04/16 10:39:33;;;;;;;34.90;17.15;;;;;;;8.68;100.00;101068.41;1718347;83;21577;-58
2023/04/16 10:42:11;;;;;;;35.65;16.85;;;;;;;8.72;100.00;101069.27;1718001;83;21130;-58
2023/04/16 10:44:40;;;;;;;31.87;15.35;;;;;;;8.74;100.00;101075.92;1717618;83;21107;-58
2023/04/16 10:47:11;;;;;;;33.42;15.93;;;;;;;8.73;100.00;101081.05;1714519;84;21621;-57
2023/04/16 10:49:41;;;;;;;31.07;15.90;;;;;;;8.70;99.96;101075.92;1714652;84;21103;-57
2023/04/16 10:52:12;;;;;;;37.03;16.35;;;;;;;8.70;100.00;101074.05;1714536;84;21218;-56
2023/04/16 10:54:40;;;;;;;35.45;16.62;;;;;;;8.73;100.00;101071.48;1714524;84;21562;-56
2023/04/16 10:57:15;;;;;;;32.50;16.52;;;;;;;8.74;100.00;101077.30;1714481;84;21043;-56
2023/04/16 10:59:44;;;;;;;33.40;16.12;;;;;;;8.76;100.00;101075.25;1714566;84;21075;-55
2023/04/16 11:02:14;;;;;;;35.10;15.38;;;;;;;8.77;100.00;101076.95;1714533;84;21027;-58
2023/04/16 11:04:44;;;;;;;34.40;16.90;;;;;;;8.72;100.00;101079.34;1714336;84;21069;-60
2023/04/16 11:07:18;;;;;;;33.70;16.17;;;;;;;8.71;100.00;101079.00;1714438;84;21039;-56
2023/04/16 11:09:55;;;;;;;30.12;16.15;;;;;;;8.70;100.00;101078.66;1714861;84;21023;-56
2023/04/16 11:12:26;;;;;;;33.40;16.90;;;;;;;8.69;100.00;101070.12;1714573;84;21119;-56
2023/04/16 11:15:15;;;;;;;37.20;16.45;;;;;;;8.66;100.00;101075.41;1716617;82;21162;-58
2023/04/16 11:17:50;;;;;;;31.12;14.93;;;;;;;8.63;100.00;101080.35;1749063;82;21092;-58
2023/04/16 11:20:24;;;;;;;34.60;17.20;;;;;;;8.65;100.00;101076.94;1733440;82;21019;-58
2023/04/16 11:22:55;;;;;;;35.90;17.32;;;;;;;8.66;100.00;101082.23;1694483;83;21075;-60
2023/04/16 11:25:29;;;;;;;32.30;16.00;;;;;;;8.67;100.00;101085.31;1703679;83;21076;-58
2023/04/16 11:27:58;;;;;;;35.35;17.62;;;;;;;8.69;100.00;101086.51;1706075;84;21467;-56
2023/04/16 11:30:36;;;;;;;33.63;17.10;;;;;;;8.68;100.00;101083.44;1718967;83;21027;-56
2023/04/16 11:33:07;;;;;;;36.50;17.67;;;;;;;8.66;100.00;101083.60;1734420;82;21016;-56